Terminal Aerodrome Forecast
Issued by NWS Indianapolis, IN

Home | Current Version | Previous Version | Text Only | Print | Product List | Glossary On
Versions: 1 2 3 4 5 6 7 8 9 10 11 12 13 14 15 16 17 18 19 20 21 22
369
FTUS43 KIND 232016 AAA
TAFIND
TAF AMD
KIND 232016Z 2320/2424 04015KT P6SM SCT250
     FM240100 03009KT P6SM SKC
     FM240700 04005KT P6SM SKC
     FM241500 07009KT P6SM SKC
     FM242300 10006KT P6SM FEW200=

USA.gov is the U.S. government's official web portal to all federal, state and local government web resources and services.